createdAt,value
2019-05-19T00:00:27.592Z,53.25
2019-05-19T00:02:56.116Z,52.45
2019-05-19T00:05:24.669Z,52.43
2019-05-19T00:07:53.213Z,52.13
2019-05-19T00:10:21.757Z,55.28
2019-05-19T00:12:50.231Z,50.80
2019-05-19T00:15:19.069Z,52.27
2019-05-19T00:17:47.611Z,54.13
2019-05-19T00:20:16.394Z,54.05
2019-05-19T00:22:48.623Z,56.77
2019-05-19T00:25:17.130Z,52.13
2019-05-19T00:27:45.686Z,50.65
2019-05-19T00:30:14.679Z,52.50
2019-05-19T00:32:43.362Z,51.13
2019-05-19T00:35:11.971Z,54.03
2019-05-19T00:37:40.511Z,49.88
2019-05-19T00:40:09.132Z,50.52
2019-05-19T00:42:38.059Z,53.00
2019-05-19T00:45:08.371Z,52.90
2019-05-19T00:47:36.978Z,51.48
2019-05-19T00:50:07.368Z,52.23
2019-05-19T00:52:35.990Z,51.83
2019-05-19T00:55:05.621Z,50.95
2019-05-19T00:57:36.302Z,46.53
2019-05-19T01:00:07.969Z,49.42
2019-05-19T01:02:36.500Z,51.90
2019-05-19T01:05:08.164Z,50.25
2019-05-19T01:07:36.772Z,53.40
2019-05-19T01:10:09.156Z,53.45
2019-05-19T01:12:38.053Z,48.08
2019-05-19T01:15:08.970Z,53.50
2019-05-19T01:17:37.520Z,53.65
2019-05-19T01:20:07.537Z,50.50
2019-05-19T01:22:36.479Z,48.75
2019-05-19T01:25:07.054Z,52.85
2019-05-19T01:27:35.595Z,50.88
2019-05-19T01:30:07.163Z,57.62
2019-05-19T01:32:35.632Z,55.00
2019-05-19T01:35:04.844Z,55.70
2019-05-19T01:37:33.438Z,52.95
2019-05-19T01:40:02.146Z,58.30
2019-05-19T01:42:31.003Z,52.40
2019-05-19T01:44:59.587Z,57.45
2019-05-19T01:47:28.117Z,58.20
2019-05-19T01:50:16.532Z,55.65
2019-05-19T01:52:27.366Z,53.73
2019-05-19T01:54:55.858Z,55.43
2019-05-19T01:57:24.342Z,53.85
2019-05-19T01:59:52.805Z,54.08
2019-05-19T02:02:21.374Z,56.85
2019-05-19T02:04:50.173Z,56.37
2019-05-19T02:07:18.716Z,54.83
2019-05-19T02:09:47.211Z,55.98
2019-05-19T02:12:15.694Z,57.43
2019-05-19T02:14:44.206Z,57.58
2019-05-19T02:17:12.773Z,55.75
2019-05-19T02:19:41.277Z,56.55
2019-05-19T02:22:09.844Z,58.35
2019-05-19T02:24:38.308Z,56.30
2019-05-19T02:27:06.837Z,60.45
2019-05-19T02:29:35.331Z,56.10
2019-05-19T02:32:03.876Z,62.65
2019-05-19T02:34:32.870Z,59.13
2019-05-19T02:37:01.429Z,59.65
2019-05-19T02:39:29.965Z,59.33
2019-05-19T02:42:00.321Z,59.80
2019-05-19T02:44:30.032Z,61.33
2019-05-19T02:47:00.735Z,58.55
2019-05-19T02:49:32.633Z,59.40
2019-05-19T02:52:03.486Z,58.08
2019-05-19T02:54:33.523Z,54.85
2019-05-19T02:57:03.754Z,56.15
2019-05-19T02:59:33.053Z,56.05
2019-05-19T03:02:08.587Z,60.45
2019-05-19T03:04:37.372Z,56.85
2019-05-19T03:07:05.918Z,57.85
2019-05-19T03:09:34.469Z,62.50
2019-05-19T03:12:03.088Z,57.65
2019-05-19T03:14:31.568Z,62.60
2019-05-19T03:17:00.079Z,60.15
2019-05-19T03:19:28.626Z,59.95
2019-05-19T03:21:57.186Z,62.93
2019-05-19T03:24:25.680Z,57.00
2019-05-19T03:26:54.170Z,56.45
2019-05-19T03:29:24.382Z,59.00
2019-05-19T03:31:57.333Z,60.05
2019-05-19T03:34:26.961Z,61.40
2019-05-19T03:36:55.885Z,59.85
2019-05-19T03:39:24.683Z,62.60
2019-05-19T03:41:53.255Z,65.37
2019-05-19T03:44:21.739Z,63.50
2019-05-19T03:46:50.231Z,65.20
2019-05-19T03:49:18.779Z,60.48
2019-05-19T03:51:47.275Z,66.25
2019-05-19T03:54:16.089Z,67.08
2019-05-19T03:56:44.589Z,64.97
2019-05-19T03:59:15.472Z,65.42
2019-05-19T04:01:44.011Z,64.15
2019-05-19T04:04:12.542Z,65.12
2019-05-19T04:06:41.098Z,63.90
2019-05-19T04:09:09.651Z,66.97
2019-05-19T04:11:38.200Z,65.83
2019-05-19T04:14:06.654Z,66.35
2019-05-19T04:16:35.137Z,66.45
2019-05-19T04:19:03.619Z,69.15
2019-05-19T04:21:47.604Z,64.92
2019-05-19T04:24:02.693Z,70.80
2019-05-19T04:26:31.228Z,68.07
2019-05-19T04:28:59.724Z,71.47
2019-05-19T04:31:28.299Z,70.72
2019-05-19T04:33:56.811Z,71.70
2019-05-19T04:36:27.545Z,68.75
2019-05-19T04:38:56.081Z,71.07
2019-05-19T04:41:24.577Z,68.20
2019-05-19T04:43:53.042Z,74.05
2019-05-19T04:46:21.545Z,69.90
2019-05-19T04:48:50.113Z,75.78
2019-05-19T04:51:18.653Z,69.10
2019-05-19T04:53:47.225Z,74.05
2019-05-19T04:56:19.489Z,71.33
2019-05-19T04:58:45.923Z,72.17
2019-05-19T05:01:14.764Z,73.70
2019-05-19T05:03:43.230Z,74.55
2019-05-19T05:06:11.730Z,69.40
2019-05-19T05:08:40.490Z,71.33
2019-05-19T05:11:09.066Z,70.62
2019-05-19T05:13:37.544Z,71.85
2019-05-19T05:16:06.020Z,73.97
2019-05-19T05:18:34.641Z,67.78
2019-05-19T05:21:03.146Z,73.45
2019-05-19T05:23:31.604Z,70.85
2019-05-19T05:26:01.068Z,73.28
2019-05-19T05:28:29.561Z,73.78
2019-05-19T05:30:58.151Z,74.72
2019-05-19T05:33:26.700Z,71.50
2019-05-19T05:35:57.167Z,75.97
2019-05-19T05:38:25.929Z,72.62
2019-05-19T05:40:56.702Z,72.40
2019-05-19T05:43:24.592Z,73.47
2019-05-19T05:45:53.076Z,75.55
2019-05-19T05:48:21.545Z,75.40
2019-05-19T05:50:50.181Z,71.15
2019-05-19T05:53:18.719Z,75.87
2019-05-19T05:55:47.254Z,74.67
2019-05-19T05:58:15.736Z,71.85
2019-05-19T06:00:44.211Z,77.97
2019-05-19T06:03:12.766Z,76.00
2019-05-19T06:05:41.235Z,74.25
2019-05-19T06:08:09.779Z,70.78
2019-05-19T06:10:38.264Z,73.70
2019-05-19T06:13:06.742Z,74.32
2019-05-19T06:15:35.386Z,73.60
2019-05-19T06:18:04.283Z,74.40
2019-05-19T06:20:32.832Z,70.15
2019-05-19T06:23:01.387Z,77.15
2019-05-19T06:25:29.989Z,77.05
2019-05-19T06:27:58.551Z,75.45
2019-05-19T06:30:28.567Z,77.17
2019-05-19T06:32:58.759Z,77.30
2019-05-19T06:35:27.257Z,79.00
2019-05-19T06:37:55.909Z,78.35
2019-05-19T06:40:24.483Z,77.60
2019-05-19T06:42:53.112Z,76.62
2019-05-19T06:45:21.855Z,77.20
2019-05-19T06:47:50.525Z,77.12
2019-05-19T06:50:19.388Z,76.00
2019-05-19T06:52:47.918Z,77.45
2019-05-19T06:55:16.666Z,77.53
2019-05-19T06:57:45.122Z,79.62
2019-05-19T07:00:13.998Z,76.00
2019-05-19T07:02:42.501Z,78.33
2019-05-19T07:05:11.216Z,73.75
2019-05-19T07:07:39.800Z,79.40
2019-05-19T07:10:08.929Z,76.77
2019-05-19T07:12:37.457Z,77.42
2019-05-19T07:15:06.903Z,77.22
2019-05-19T07:17:35.447Z,77.80
2019-05-19T07:20:05.932Z,77.85
2019-05-19T07:22:37.451Z,76.60
2019-05-19T07:25:06.519Z,80.77
2019-05-19T07:27:34.985Z,74.17
2019-05-19T07:30:07.730Z,77.80
2019-05-19T07:32:36.214Z,81.17
2019-05-19T07:35:06.533Z,78.00
2019-05-19T07:37:35.019Z,80.83
2019-05-19T07:40:04.553Z,75.95
2019-05-19T07:42:33.166Z,77.97
2019-05-19T07:45:01.981Z,80.12
2019-05-19T07:47:30.568Z,77.75
2019-05-19T07:49:59.066Z,80.87
2019-05-19T07:52:27.618Z,78.80
2019-05-19T07:54:56.165Z,78.60
2019-05-19T07:57:24.654Z,78.47
2019-05-19T07:59:53.707Z,75.00
2019-05-19T08:02:22.217Z,77.75
2019-05-19T08:04:50.766Z,74.87
2019-05-19T08:07:21.301Z,77.95
2019-05-19T08:09:49.458Z,69.03
2019-05-19T08:12:17.949Z,77.27
2019-05-19T08:14:46.419Z,73.55
2019-05-19T08:17:14.911Z,76.40
2019-05-19T08:19:43.484Z,77.35
2019-05-19T08:22:12.040Z,72.55
2019-05-19T08:24:40.568Z,75.65
2019-05-19T08:27:09.159Z,76.60
2019-05-19T08:29:37.655Z,75.57
2019-05-19T08:32:06.164Z,76.95
2019-05-19T08:34:34.733Z,73.50
2019-05-19T08:37:03.405Z,77.12
2019-05-19T08:39:31.910Z,77.37
2019-05-19T08:42:00.458Z,72.05
2019-05-19T08:44:30.597Z,72.15
2019-05-19T08:46:59.066Z,72.90
2019-05-19T08:49:27.598Z,75.05
2019-05-19T08:51:56.112Z,76.40
2019-05-19T08:54:24.593Z,73.28
2019-05-19T08:56:53.082Z,69.35
2019-05-19T08:59:21.560Z,71.65
2019-05-19T09:01:50.028Z,71.15
2019-05-19T09:04:18.607Z,70.15
2019-05-19T09:06:47.228Z,69.03
2019-05-19T09:09:15.744Z,72.60
2019-05-19T09:11:44.299Z,68.07
2019-05-19T09:14:13.367Z,69.20
2019-05-19T09:16:41.921Z,67.80
2019-05-19T09:19:10.405Z,68.55
2019-05-19T09:21:38.974Z,69.15
2019-05-19T09:24:07.883Z,68.00
2019-05-19T09:26:36.383Z,66.12
2019-05-19T09:29:05.007Z,68.47
2019-05-19T09:31:33.490Z,64.97
2019-05-19T09:34:02.144Z,66.85
2019-05-19T09:36:30.622Z,68.00
2019-05-19T09:38:59.137Z,67.82
2019-05-19T09:41:27.705Z,59.15
2019-05-19T09:43:56.201Z,58.02
2019-05-19T09:46:24.767Z,57.35
2019-05-19T09:48:55.254Z,56.55
2019-05-19T09:51:23.738Z,57.67
2019-05-19T09:53:52.240Z,55.52
2019-05-19T09:56:20.799Z,53.30
2019-05-19T09:58:49.330Z,52.48
2019-05-19T10:01:17.914Z,49.85
2019-05-19T10:03:46.443Z,48.65
2019-05-19T10:06:15.037Z,47.75
2019-05-19T10:08:46.890Z,47.93
2019-05-19T10:11:53.515Z,48.48
2019-05-19T10:14:22.047Z,48.23
2019-05-19T10:16:50.524Z,46.15
2019-05-19T10:19:19.043Z,45.63
2019-05-19T10:21:47.584Z,47.10
2019-05-19T10:24:16.121Z,45.20
2019-05-19T10:26:44.672Z,46.63
2019-05-19T10:29:14.366Z,47.23
2019-05-19T10:31:42.912Z,45.45
2019-05-19T10:34:11.474Z,47.00
2019-05-19T10:36:39.991Z,47.95
2019-05-19T10:39:08.563Z,49.63
2019-05-19T10:41:37.136Z,48.85
2019-05-19T10:44:05.704Z,49.33
2019-05-19T10:46:34.310Z,50.63
2019-05-19T10:49:04.951Z,48.05
2019-05-19T10:51:33.501Z,50.60
2019-05-19T10:54:02.084Z,48.25
2019-05-19T10:56:30.564Z,50.00
2019-05-19T10:58:59.362Z,46.98
2019-05-19T11:01:27.836Z,47.50
2019-05-19T11:03:56.413Z,45.58
2019-05-19T11:06:25.072Z,44.45
2019-05-19T11:08:53.574Z,43.78
2019-05-19T11:11:22.059Z,43.33
2019-05-19T11:13:50.750Z,41.40
2019-05-19T11:16:20.244Z,38.88
2019-05-19T11:18:48.718Z,40.67
2019-05-19T11:21:17.200Z,39.33
2019-05-19T11:23:45.661Z,38.95
2019-05-19T11:26:14.205Z,39.05
2019-05-19T11:28:42.830Z,38.45
2019-05-19T11:31:11.402Z,38.15
2019-05-19T11:33:39.954Z,38.60
2019-05-19T11:36:08.506Z,39.63
2019-05-19T11:38:37.151Z,39.03
2019-05-19T11:41:05.654Z,39.33
2019-05-19T11:43:34.152Z,39.40
2019-05-19T11:46:02.716Z,38.00
2019-05-19T11:48:31.332Z,38.28
2019-05-19T11:50:59.847Z,37.90
2019-05-19T11:53:28.723Z,36.95
2019-05-19T11:56:06.218Z,39.15
2019-05-19T11:58:27.534Z,38.83
2019-05-19T12:00:56.081Z,38.08
2019-05-19T12:03:24.624Z,39.25
2019-05-19T12:05:53.202Z,37.85
2019-05-19T12:08:21.745Z,38.17
2019-05-19T12:10:50.650Z,38.25
2019-05-19T12:13:19.158Z,37.85
2019-05-19T12:15:47.770Z,38.65
2019-05-19T12:18:16.254Z,37.28
2019-05-19T12:20:44.715Z,36.33
2019-05-19T12:23:13.555Z,35.75
2019-05-19T12:25:42.103Z,33.42
2019-05-19T12:28:11.662Z,34.40
2019-05-19T12:30:40.167Z,34.43
2019-05-19T12:33:08.636Z,32.67
2019-05-19T12:35:37.109Z,30.52
2019-05-19T12:38:05.690Z,31.73
2019-05-19T12:40:34.239Z,30.60
2019-05-19T12:43:02.835Z,30.95
2019-05-19T12:45:31.751Z,31.48
2019-05-19T12:48:05.970Z,31.00
2019-05-19T12:50:34.470Z,31.12
2019-05-19T12:53:05.690Z,30.55
2019-05-19T12:55:34.551Z,32.45
2019-05-19T12:58:03.070Z,30.30
2019-05-19T13:00:31.638Z,30.82
2019-05-19T13:03:00.163Z,32.08
2019-05-19T13:05:28.746Z,29.92
2019-05-19T13:07:57.392Z,31.17
2019-05-19T13:10:27.327Z,31.00
2019-05-19T13:12:55.931Z,31.05
2019-05-19T13:15:24.659Z,30.70
2019-05-19T13:17:53.371Z,29.30
2019-05-19T13:20:22.129Z,30.35
2019-05-19T13:22:50.766Z,30.27
2019-05-19T13:25:19.442Z,29.18
2019-05-19T13:27:48.039Z,29.50
2019-05-19T13:30:16.926Z,27.60
2019-05-19T13:32:45.495Z,28.67
2019-05-19T13:35:14.366Z,30.60
2019-05-19T13:37:43.359Z,29.15
2019-05-19T13:40:12.246Z,29.77
2019-05-19T13:42:41.879Z,29.70
2019-05-19T13:45:12.166Z,30.92
2019-05-19T13:47:40.784Z,31.62
2019-05-19T13:50:10.553Z,31.23
2019-05-19T13:52:39.258Z,30.92
2019-05-19T13:55:08.469Z,30.92
2019-05-19T13:57:37.168Z,31.12
2019-05-19T14:00:07.002Z,29.67
2019-05-19T14:02:36.250Z,31.90
2019-05-19T14:05:05.752Z,32.05
2019-05-19T14:07:34.400Z,31.85
2019-05-19T14:10:03.736Z,33.10
2019-05-19T14:12:32.459Z,32.10
2019-05-19T14:15:04.933Z,33.28
2019-05-19T14:17:33.778Z,30.92
2019-05-19T14:20:02.985Z,32.93
2019-05-19T14:22:31.668Z,31.87
2019-05-19T14:25:01.924Z,33.92
2019-05-19T14:27:31.051Z,32.42
2019-05-19T14:29:59.904Z,33.90
2019-05-19T14:32:28.494Z,33.88
2019-05-19T14:34:57.117Z,35.28
2019-05-19T14:37:25.818Z,32.93
2019-05-19T14:39:55.957Z,33.42
2019-05-19T14:42:42.596Z,35.00
2019-05-19T14:45:30.687Z,32.85
2019-05-19T14:48:06.982Z,33.50
2019-05-19T14:50:35.664Z,34.83
2019-05-19T14:53:06.105Z,35.52
2019-05-19T14:55:55.000Z,37.05
2019-05-19T14:58:39.912Z,36.53
2019-05-19T15:12:14.365Z,37.10
2019-05-19T15:14:46.719Z,35.70
2019-05-19T15:17:31.642Z,37.63
2019-05-19T15:20:09.522Z,36.50
2019-05-19T15:28:04.426Z,36.20
2019-05-19T15:30:32.323Z,36.80
2019-05-19T15:33:01.140Z,39.40
2019-05-19T15:35:29.913Z,37.83
2019-05-19T15:37:58.818Z,38.38
2019-05-19T15:40:27.638Z,39.85
2019-05-19T15:42:57.280Z,38.08
2019-05-19T15:45:25.829Z,38.70
2019-05-19T15:47:54.517Z,40.98
2019-05-19T15:50:23.398Z,41.08
2019-05-19T15:52:51.947Z,41.35
2019-05-19T15:55:21.340Z,39.98
2019-05-19T15:57:49.909Z,39.23
2019-05-19T16:00:20.041Z,42.43
2019-05-19T16:02:48.894Z,43.15
2019-05-19T16:05:17.838Z,42.85
2019-05-19T16:07:46.442Z,43.52
2019-05-19T16:10:16.597Z,42.13
2019-05-19T16:12:45.245Z,44.75
2019-05-19T16:15:14.794Z,42.50
2019-05-19T16:17:45.070Z,44.93
2019-05-19T16:20:14.298Z,45.55
2019-05-19T16:22:43.070Z,45.15
2019-05-19T16:25:11.949Z,46.25
2019-05-19T16:27:40.800Z,45.15
2019-05-19T16:30:10.994Z,44.42
2019-05-19T16:32:39.663Z,44.13
2019-05-19T16:35:08.576Z,45.48
2019-05-19T16:37:37.216Z,46.18
2019-05-19T16:40:06.407Z,46.02
2019-05-19T16:42:34.996Z,47.58
2019-05-19T16:45:05.003Z,46.35
2019-05-19T16:47:33.493Z,47.03
2019-05-19T16:50:02.031Z,44.65
2019-05-19T16:52:30.877Z,46.88
2019-05-19T16:55:01.001Z,45.58
2019-05-19T16:57:29.532Z,44.63
2019-05-19T16:59:58.093Z,43.70
2019-05-19T17:02:26.567Z,42.27
2019-05-19T17:04:55.137Z,45.58
2019-05-19T17:07:23.785Z,44.42
2019-05-19T17:09:52.323Z,44.55
2019-05-19T17:12:20.850Z,41.65
2019-05-19T17:14:49.395Z,43.25
2019-05-19T17:17:18.362Z,40.85
2019-05-19T17:19:46.958Z,43.10
2019-05-19T17:22:15.554Z,39.03
2019-05-19T17:24:44.142Z,41.65
2019-05-19T17:27:12.708Z,40.95
2019-05-19T17:29:41.251Z,40.95
2019-05-19T17:32:09.735Z,43.00
2019-05-19T17:34:38.316Z,40.75
2019-05-19T17:37:06.914Z,42.60
2019-05-19T17:39:35.553Z,41.85
2019-05-19T17:42:04.079Z,42.55
2019-05-19T17:44:32.951Z,41.80
2019-05-19T17:47:01.524Z,40.40
2019-05-19T17:49:30.098Z,39.33
2019-05-19T17:51:58.820Z,40.35
2019-05-19T17:54:27.372Z,40.35
2019-05-19T17:56:58.416Z,43.40
2019-05-19T17:59:26.949Z,43.90
2019-05-19T18:01:55.448Z,41.20
2019-05-19T18:04:23.932Z,43.10
2019-05-19T18:06:52.497Z,43.85
2019-05-19T18:09:21.051Z,41.60
2019-05-19T18:11:49.666Z,45.15
2019-05-19T18:14:18.139Z,43.23
2019-05-19T18:16:46.644Z,45.83
2019-05-19T18:19:16.642Z,44.73
2019-05-19T18:21:45.117Z,44.95
2019-05-19T18:24:13.979Z,49.93
2019-05-19T18:26:42.513Z,49.18
2019-05-19T18:29:14.370Z,51.92
2019-05-19T18:31:43.204Z,48.55
2019-05-19T18:34:11.787Z,47.93
2019-05-19T18:36:40.339Z,45.60
2019-05-19T18:39:10.438Z,43.87
2019-05-19T18:41:38.931Z,45.35
2019-05-19T18:44:07.463Z,44.63
2019-05-19T18:46:36.013Z,47.48
2019-05-19T18:49:04.562Z,46.88
2019-05-19T18:51:33.037Z,49.58
2019-05-19T18:54:01.579Z,47.83
2019-05-19T18:56:30.054Z,46.98
2019-05-19T18:58:58.563Z,48.38
2019-05-19T19:01:27.180Z,50.60
2019-05-19T19:03:55.886Z,48.38
2019-05-19T19:06:26.890Z,49.85
2019-05-19T19:08:57.282Z,50.30
2019-05-19T19:11:25.761Z,54.25
2019-05-19T19:13:54.231Z,53.08
2019-05-19T19:16:22.723Z,54.38
2019-05-19T19:18:51.280Z,52.38
2019-05-19T19:21:19.805Z,50.90
2019-05-19T19:23:48.277Z,49.75
2019-05-19T19:26:17.081Z,50.60
2019-05-19T19:28:45.539Z,50.58
2019-05-19T19:31:14.101Z,53.33
2019-05-19T19:33:42.573Z,50.70
2019-05-19T19:36:11.056Z,54.05
2019-05-19T19:38:39.543Z,62.43
2019-05-19T19:41:08.026Z,62.43
2019-05-19T19:43:36.637Z,62.67
2019-05-19T19:46:05.106Z,61.80
2019-05-19T19:48:33.711Z,62.83
2019-05-19T19:51:02.194Z,65.03
2019-05-19T19:53:30.649Z,65.15
2019-05-19T19:55:59.407Z,63.05
2019-05-19T19:58:27.954Z,64.65
2019-05-19T20:00:56.786Z,63.08
2019-05-19T20:03:25.279Z,66.70
2019-05-19T20:05:53.815Z,65.57
2019-05-19T20:08:22.303Z,67.58
2019-05-19T20:10:50.775Z,67.20
2019-05-19T20:13:19.315Z,67.42
2019-05-19T20:15:47.881Z,70.20
2019-05-19T20:18:16.362Z,70.30
2019-05-19T20:20:45.034Z,65.75
2019-05-19T20:23:13.510Z,71.45
2019-05-19T20:25:41.999Z,71.10
2019-05-19T20:28:10.525Z,68.97
2019-05-19T20:30:39.311Z,65.85
2019-05-19T20:33:07.856Z,65.45
2019-05-19T20:35:36.341Z,66.40
2019-05-19T20:38:05.056Z,67.92
2019-05-19T20:40:33.620Z,70.90
2019-05-19T20:43:02.252Z,75.90
2019-05-19T20:45:30.764Z,80.83
2019-05-19T20:47:59.272Z,73.55
2019-05-19T20:50:27.801Z,74.70
2019-05-19T20:52:57.960Z,74.30
2019-05-19T20:55:26.628Z,66.00
2019-05-19T20:57:55.251Z,61.65
2019-05-19T21:00:26.719Z,65.50
2019-05-19T21:02:55.480Z,62.13
2019-05-19T21:05:24.333Z,60.90
2019-05-19T21:07:52.790Z,58.95
2019-05-19T21:10:21.309Z,56.40
2019-05-19T21:12:52.853Z,54.20
2019-05-19T21:15:20.797Z,56.10
2019-05-19T21:17:49.274Z,57.33
2019-05-19T21:20:17.755Z,58.23
2019-05-19T21:22:46.264Z,59.20
2019-05-19T21:25:14.741Z,57.45
2019-05-19T21:27:43.250Z,56.95
2019-05-19T21:30:11.980Z,59.55
2019-05-19T21:32:40.467Z,52.53
2019-05-19T21:35:09.367Z,55.83
2019-05-19T21:37:37.838Z,53.83
2019-05-19T21:40:07.944Z,52.93
2019-05-19T21:42:36.422Z,51.92
2019-05-19T21:45:07.020Z,50.25
2019-05-19T21:47:35.528Z,48.48
2019-05-19T21:50:06.353Z,48.70
2019-05-19T21:52:34.835Z,48.90
2019-05-19T21:55:05.146Z,49.85
2019-05-19T21:57:33.634Z,48.45
2019-05-19T22:00:02.205Z,51.88
2019-05-19T22:02:30.809Z,53.58
2019-05-19T22:05:01.531Z,51.20
2019-05-19T22:07:33.836Z,50.90
2019-05-19T22:10:02.374Z,50.23
2019-05-19T22:12:30.869Z,52.85
2019-05-19T22:14:59.418Z,50.17
2019-05-19T22:17:27.899Z,51.05
2019-05-19T22:19:56.375Z,52.62
2019-05-19T22:22:24.855Z,52.53
2019-05-19T22:24:54.848Z,49.65
2019-05-19T22:27:23.357Z,50.25
2019-05-19T22:29:51.858Z,52.05
2019-05-19T22:32:20.320Z,52.08
2019-05-19T22:34:49.075Z,51.02
2019-05-19T22:37:17.704Z,49.45
2019-05-19T22:39:48.130Z,49.95
2019-05-19T22:42:16.615Z,51.42
2019-05-19T22:44:45.153Z,49.35
2019-05-19T22:47:13.696Z,49.27
2019-05-19T22:49:42.177Z,50.35
2019-05-19T22:52:10.644Z,49.13
2019-05-19T22:54:39.106Z,49.00
2019-05-19T22:57:07.683Z,48.20
2019-05-19T22:59:38.421Z,46.83
2019-05-19T23:02:09.263Z,44.00
2019-05-19T23:04:37.180Z,44.18
2019-05-19T23:07:05.646Z,40.75
2019-05-19T23:09:34.132Z,42.15
2019-05-19T23:12:02.608Z,41.13
2019-05-19T23:14:31.350Z,42.95
2019-05-19T23:16:59.901Z,41.30
2019-05-19T23:19:28.366Z,39.00
2019-05-19T23:21:56.855Z,37.63
2019-05-19T23:24:25.394Z,36.60
2019-05-19T23:26:53.884Z,33.95
2019-05-19T23:29:22.361Z,34.78
2019-05-19T23:31:50.902Z,33.65
2019-05-19T23:34:19.367Z,33.42
2019-05-19T23:36:47.837Z,31.25
2019-05-19T23:39:16.383Z,33.75
2019-05-19T23:41:44.870Z,32.23
2019-05-19T23:44:13.500Z,32.90
2019-05-19T23:46:42.052Z,31.85
2019-05-19T23:49:10.526Z,30.35
2019-05-19T23:51:39.039Z,31.48
2019-05-19T23:54:10.478Z,30.35
2019-05-19T23:56:38.943Z,29.45
2019-05-19T23:59:07.508Z,28.30
